Time;durP1;ratioP1;P1;durP2;ratioP2;P2;SDS_P1;SDS_P2;PMS_P1;PMS_P2;Temp;Humidity;BMP_temperature;BMP_pressure;BME280_temperature;BME280_humidity;BME280_pressure;Samples;Min_cycle;Max_cycle;Signal;HPM_P1;HPM_P2
2024/03/06 00:01:37;;;;;;;8.18;3.50;;;4.00;99.90;;;;;;5099108;27;20591;-82
2024/03/06 00:04:28;;;;;;;4.88;3.42;;;4.00;91.70;;;;;;5097359;28;20071;-80
2024/03/06 00:07:15;;;;;;;4.45;3.40;;;4.00;31.70;;;;;;5094463;28;20545;-81
2024/03/06 00:10:04;;;;;;;8.73;3.53;;;4.00;1.00;;;;;;5108362;28;20061;-76
2024/03/06 00:12:52;;;;;;;6.07;2.80;;;4.00;1.00;;;;;;5107505;28;20038;-80
2024/03/06 00:15:40;;;;;;;6.63;3.22;;;4.10;1.00;;;;;;5103493;28;20044;-76
2024/03/06 00:18:28;;;;;;;11.07;5.72;;;4.10;1.00;;;;;;5093917;28;20036;-82
2024/03/06 00:21:15;;;;;;;10.02;5.95;;;4.10;1.00;;;;;;5095895;28;20329;-76
2024/03/06 00:24:03;;;;;;;9.55;5.55;;;4.10;1.00;;;;;;5103620;28;20094;-82
2024/03/06 00:26:51;;;;;;;9.98;4.93;;;4.10;1.00;;;;;;5100088;28;20043;-80
2024/03/06 00:29:38;;;;;;;6.65;4.05;;;4.10;99.90;;;;;;5094162;28;20142;-80
2024/03/06 00:32:26;;;;;;;8.57;3.78;;;4.10;99.90;;;;;;5083993;28;20040;-80
2024/03/06 00:35:13;;;;;;;5.75;3.05;;;4.20;99.90;;;;;;5093737;28;20054;-78
2024/03/06 00:38:02;;;;;;;6.68;3.42;;;4.30;99.90;;;;;;5099281;28;20048;-78
2024/03/06 00:40:50;;;;;;;10.27;4.22;;;4.30;99.90;;;;;;5101055;28;20114;-77
2024/03/06 00:43:37;;;;;;;7.07;3.65;;;4.30;99.90;;;;;;5080292;28;20051;-80
2024/03/06 00:46:25;;;;;;;5.97;3.55;;;4.30;99.90;;;;;;5095967;28;20069;-76
2024/03/06 00:49:12;;;;;;;5.28;3.80;;;4.30;99.90;;;;;;5082747;28;20040;-80
2024/03/06 00:51:59;;;;;;;6.70;3.35;;;4.30;99.90;;;;;;5099973;27;20048;-79
2024/03/06 00:54:47;;;;;;;9.55;3.65;;;4.30;99.90;;;;;;5107104;28;20118;-79
2024/03/06 00:57:36;;;;;;;9.40;3.20;;;4.20;99.90;;;;;;5096510;28;20090;-79
2024/03/06 01:00:23;;;;;;;6.25;3.17;;;4.20;99.90;;;;;;5104004;27;20062;-81
2024/03/06 01:03:11;;;;;;;5.10;3.17;;;4.20;99.90;;;;;;5107550;28;20487;-78
2024/03/06 01:05:58;;;;;;;6.47;3.70;;;4.10;99.90;;;;;;5109293;27;20048;-80
2024/03/06 01:08:46;;;;;;;6.65;3.45;;;4.00;99.90;;;;;;5101672;27;20054;-79
2024/03/06 01:11:33;;;;;;;10.05;4.38;;;4.00;99.90;;;;;;5100055;27;20047;-79
2024/03/06 01:14:21;;;;;;;5.13;3.90;;;3.90;99.90;;;;;;5100464;28;20047;-78
2024/03/06 01:17:11;;;;;;;7.15;3.65;;;3.90;99.90;;;;;;5100206;28;20039;-79
2024/03/06 01:20:00;;;;;;;6.97;3.95;;;3.80;99.90;;;;;;5075979;28;20070;-79
2024/03/06 01:22:48;;;;;;;6.93;3.63;;;3.80;99.90;;;;;;5098446;28;20035;-76
2024/03/06 01:25:35;;;;;;;7.60;4.15;;;3.80;99.90;;;;;;5097892;27;20073;-79
2024/03/06 01:28:24;;;;;;;7.07;4.00;;;3.80;99.90;;;;;;5098997;28;20039;-78
2024/03/06 01:31:12;;;;;;;5.22;3.63;;;3.80;99.90;;;;;;5106334;28;20048;-81
2024/03/06 01:34:00;;;;;;;6.82;4.55;;;3.80;99.90;;;;;;5097547;28;20771;-77
2024/03/06 01:36:48;;;;;;;7.32;4.85;;;3.80;1.00;;;;;;5093165;28;20055;-76
2024/03/06 01:39:37;;;;;;;7.35;4.50;;;3.80;1.00;;;;;;5108229;27;20043;-76
2024/03/06 01:42:25;;;;;;;6.47;4.15;;;3.70;1.00;;;;;;5109144;27;20095;-76
2024/03/06 01:45:14;;;;;;;7.03;4.75;;;3.70;1.00;;;;;;5111857;28;20111;-80
2024/03/06 01:48:02;;;;;;;8.13;5.07;;;3.70;1.00;;;;;;5100636;27;20051;-79
2024/03/06 01:50:50;;;;;;;8.63;4.75;;;3.60;1.00;;;;;;5105487;28;20051;-78
2024/03/06 01:53:38;;;;;;;7.50;4.72;;;3.60;16.50;;;;;;5089105;28;20085;-78
2024/03/06 01:56:26;;;;;;;10.48;4.85;;;3.60;79.70;;;;;;5087878;28;20097;-77
2024/03/06 01:59:16;;;;;;;10.68;4.90;;;3.60;99.90;;;;;;5080420;27;20051;-80
2024/03/06 02:02:18;;;;;;;8.20;5.55;;;3.60;99.90;;;;;;5094975;28;20039;-80
2024/03/06 02:05:06;;;;;;;5.80;4.80;;;3.60;99.90;;;;;;5097083;28;20069;-79
2024/03/06 02:07:54;;;;;;;7.68;5.18;;;3.70;99.90;;;;;;5096255;28;20807;-80
2024/03/06 02:10:41;;;;;;;8.07;5.22;;;3.70;99.90;;;;;;5080863;28;20077;-80
2024/03/06 02:13:29;;;;;;;8.90;5.35;;;3.70;99.90;;;;;;5102300;27;20065;-81
2024/03/06 02:16:16;;;;;;;12.20;5.97;;;3.60;99.90;;;;;;5083262;27;20047;-80
2024/03/06 02:19:03;;;;;;;9.77;5.65;;;3.60;99.90;;;;;;5100202;28;20141;-76
2024/03/06 02:21:53;;;;;;;7.45;5.18;;;3.60;99.90;;;;;;5088273;27;20039;-80
2024/03/06 02:24:48;;;;;;;7.68;5.75;;;3.70;1.00;;;;;;5103785;28;20571;-75
2024/03/06 02:27:35;;;;;;;6.93;4.93;;;3.70;1.00;;;;;;5100235;28;20421;-77
2024/03/06 02:30:23;;;;;;;10.45;5.50;;;3.70;1.00;;;;;;5108676;27;20048;-79
2024/03/06 02:33:11;;;;;;;12.65;5.75;;;3.70;1.00;;;;;;5101859;27;20047;-80
2024/03/06 02:35:58;;;;;;;10.30;5.78;;;3.80;50.80;;;;;;5092823;27;20646;-75
2024/03/06 02:38:46;;;;;;;8.23;5.15;;;3.80;58.60;;;;;;5103109;27;20050;-82
2024/03/06 02:41:35;;;;;;;9.25;5.60;;;3.90;99.90;;;;;;5100685;28;20516;-81
2024/03/06 02:44:22;;;;;;;12.52;5.80;;;3.90;99.90;;;;;;5084816;28;20412;-76
2024/03/06 02:47:10;;;;;;;8.45;4.82;;;4.00;99.90;;;;;;5099231;28;20048;-79
2024/03/06 02:50:00;;;;;;;10.80;5.38;;;4.10;99.90;;;;;;5098429;28;20048;-80
2024/03/06 02:52:48;;;;;;;10.65;5.90;;;4.10;99.90;;;;;;5105000;28;20408;-77
2024/03/06 02:55:36;;;;;;;10.40;5.93;;;4.20;99.90;;;;;;5087201;28;20036;-78
2024/03/06 02:58:24;;;;;;;7.03;5.30;;;4.20;99.90;;;;;;5089853;28;20142;-78
2024/03/06 03:01:14;;;;;;;10.27;5.80;;;4.30;99.90;;;;;;5123700;28;20051;-75
2024/03/06 03:04:04;;;;;;;8.40;5.65;;;4.30;99.90;;;;;;5118316;27;20047;-75
2024/03/06 03:06:51;;;;;;;12.85;5.72;;;4.30;99.90;;;;;;5109926;28;20149;-75
2024/03/06 03:09:39;;;;;;;13.85;6.10;;;4.30;99.80;;;;;;5115888;27;20036;-78
2024/03/06 03:12:26;;;;;;;8.95;5.40;;;4.30;94.10;;;;;;5120459;28;20048;-77
2024/03/06 03:15:13;;;;;;;9.75;5.55;;;4.20;89.10;;;;;;5115687;28;20053;-79
2024/03/06 03:18:01;;;;;;;9.55;5.50;;;4.20;93.30;;;;;;5092193;28;20047;-81
2024/03/06 03:20:48;;;;;;;11.65;5.25;;;4.30;99.20;;;;;;5093303;28;20047;-78
2024/03/06 03:23:37;;;;;;;8.73;5.65;;;4.30;99.90;;;;;;5089934;28;20127;-80
2024/03/06 03:26:25;;;;;;;8.93;5.85;;;4.30;99.90;;;;;;5100697;27;20044;-78
2024/03/06 03:29:13;;;;;;;8.23;6.05;;;4.30;99.90;;;;;;5096697;28;20069;-80
2024/03/06 03:32:01;;;;;;;14.52;6.20;;;4.20;99.90;;;;;;5082079;28;20089;-82
2024/03/06 03:34:48;;;;;;;12.77;6.18;;;4.30;99.90;;;;;;5085824;28;20051;-78
2024/03/06 03:37:36;;;;;;;11.00;6.30;;;4.30;99.90;;;;;;5084743;27;20040;-76
2024/03/06 03:40:23;;;;;;;15.05;7.07;;;4.30;99.90;;;;;;5099384;28;20416;-81
2024/03/06 03:43:11;;;;;;;11.48;6.85;;;4.30;99.90;;;;;;5101295;28;20115;-81
2024/03/06 03:45:59;;;;;;;10.75;6.28;;;4.30;99.90;;;;;;5092900;28;20799;-78
2024/03/06 03:48:46;;;;;;;11.48;6.43;;;4.30;1.00;;;;;;5104419;28;20043;-75
2024/03/06 03:51:34;;;;;;;9.70;6.57;;;4.30;51.00;;;;;;5105836;28;20032;-81
2024/03/06 03:54:21;;;;;;;11.60;7.18;;;4.30;99.90;;;;;;5095924;28;20032;-81
2024/03/06 03:57:09;;;;;;;12.95;7.45;;;4.30;99.90;;;;;;5076863;28;20507;-80
2024/03/06 03:59:57;;;;;;;13.25;8.15;;;4.20;99.90;;;;;;5089969;28;20089;-81
2024/03/06 04:02:45;;;;;;;11.35;6.95;;;4.30;99.90;;;;;;5095212;28;20059;-79
2024/03/06 04:05:35;;;;;;;14.05;7.28;;;4.30;1.00;;;;;;5090843;28;20412;-80
2024/03/06 04:08:24;;;;;;;18.38;7.55;;;4.30;1.00;;;;;;5092334;28;20042;-82
2024/03/06 04:11:13;;;;;;;11.57;7.20;;;4.20;1.00;;;;;;5100088;28;20066;-80
2024/03/06 04:14:01;;;;;;;11.50;8.13;;;4.20;1.00;;;;;;5093060;28;20050;-82
2024/03/06 04:16:48;;;;;;;18.05;7.65;;;4.20;1.00;;;;;;5089625;28;20058;-78
2024/03/06 04:19:36;;;;;;;10.90;7.22;;;4.20;1.70;;;;;;5087329;28;20592;-81
2024/03/06 04:22:23;;;;;;;15.23;7.85;;;4.20;99.50;;;;;;5101012;28;20065;-79
2024/03/06 04:25:11;;;;;;;16.92;8.05;;;4.20;99.90;;;;;;5091736;28;20122;-80
2024/03/06 04:27:58;;;;;;;12.18;7.60;;;4.20;99.90;;;;;;5083162;28;20901;-80
2024/03/06 04:30:46;;;;;;;17.20;8.25;;;4.20;99.90;;;;;;5091246;28;20047;-78
2024/03/06 04:33:33;;;;;;;18.48;9.57;;;4.20;99.90;;;;;;5106941;27;20043;-79
2024/03/06 04:36:21;;;;;;;15.15;8.50;;;4.20;99.90;;;;;;5105847;28;20063;-77
2024/03/06 04:39:08;;;;;;;15.25;8.98;;;4.20;99.90;;;;;;5121872;27;20070;-81
2024/03/06 04:41:57;;;;;;;11.23;7.97;;;4.10;99.90;;;;;;5100323;27;20127;-81
2024/03/06 04:44:47;;;;;;;14.98;9.05;;;4.20;1.00;;;;;;5107108;28;20067;-80
2024/03/06 04:47:35;;;;;;;16.40;8.60;;;4.10;1.00;;;;;;5090245;28;20039;-81
2024/03/06 04:50:23;;;;;;;16.17;8.80;;;4.20;90.30;;;;;;5103722;27;20096;-80
2024/03/06 04:53:13;;;;;;;20.40;9.65;;;4.20;99.90;;;;;;5104879;27;20404;-81
2024/03/06 04:56:01;;;;;;;19.13;9.05;;;4.20;99.90;;;;;;5088664;28;20048;-80
2024/03/06 04:58:48;;;;;;;17.25;9.20;;;4.20;99.90;;;;;;5075811;28;20201;-77
2024/03/06 05:01:35;;;;;;;18.73;10.18;;;4.20;99.90;;;;;;5106148;27;20505;-78
2024/03/06 05:04:23;;;;;;;17.27;9.48;;;4.20;99.90;;;;;;5101467;27;20056;-78
2024/03/06 05:07:29;;;;;;;17.23;10.85;;;4.20;1.00;;;;;;5095452;27;20043;-79
2024/03/06 05:10:35;;;;;;;18.23;10.30;;;4.20;94.20;;;;;;5099143;28;20028;-82
2024/03/06 05:13:39;;;;;;;20.98;10.27;;;4.20;99.90;;;;;;5099023;28;20038;-80
2024/03/06 05:16:45;;;;;;;14.32;9.55;;;4.20;99.90;;;;;;5103132;28;20063;-80
2024/03/06 05:19:52;;;;;;;19.90;11.00;;;4.20;99.90;;;;;;5102904;27;20028;-79
2024/03/06 05:22:58;;;;;;;16.45;10.38;;;4.20;99.90;;;;;;5103375;28;20061;-78
2024/03/06 05:26:03;;;;;;;20.05;11.65;;;4.20;1.00;;;;;;5096936;27;20032;-77
2024/03/06 05:29:08;;;;;;;23.05;11.30;;;4.20;1.00;;;;;;5090865;28;20040;-83
2024/03/06 05:32:12;;;;;;;16.48;11.13;;;4.20;99.90;;;;;;5105907;28;20028;-83
2024/03/06 05:35:18;;;;;;;18.42;12.13;;;4.20;99.90;;;;;;5105434;28;20043;-79
2024/03/06 05:38:23;;;;;;;20.23;11.68;;;4.20;99.90;;;;;;5094249;28;20071;-81
2024/03/06 05:41:28;;;;;;;23.45;11.75;;;4.20;1.00;;;;;;5085053;27;20034;-82
2024/03/06 05:44:33;;;;;;;24.50;11.48;;;4.20;1.00;;;;;;5089904;28;20024;-80
2024/03/06 05:47:40;;;;;;;29.77;12.15;;;4.10;1.00;;;;;;5100798;27;20036;-82
2024/03/06 05:50:45;;;;;;;20.38;12.27;;;4.10;1.00;;;;;;5093583;28;20067;-79
2024/03/06 05:53:49;;;;;;;21.15;12.30;;;4.10;18.90;;;;;;5110171;28;20035;-79
2024/03/06 05:56:56;;;;;;;25.63;12.25;;;4.10;69.60;;;;;;5112338;28;20035;-76
2024/03/06 06:00:02;;;;;;;26.10;13.20;;;4.10;99.90;;;;;;5104168;27;20526;-80
2024/03/06 06:02:52;;;;;;;21.10;13.48;;;4.10;99.90;;;;;;5096769;27;20509;-77
2024/03/06 06:05:43;;;;;;;22.83;12.95;;;4.10;99.90;;;;;;5093926;28;20039;-77
2024/03/06 06:08:31;;;;;;;24.35;12.85;;;4.10;99.90;;;;;;5093063;27;20051;-77
2024/03/06 06:11:20;;;;;;;28.85;13.82;;;4.10;99.90;;;;;;5098250;27;20040;-79
2024/03/06 06:14:07;;;;;;;31.17;13.13;;;4.10;99.90;;;;;;5092885;27;20167;-77
2024/03/06 06:16:56;;;;;;;22.25;13.20;;;4.10;99.90;;;;;;5095161;27;20507;-77
2024/03/06 06:19:44;;;;;;;25.63;13.15;;;4.10;99.90;;;;;;5095885;28;20055;-77
2024/03/06 06:22:34;;;;;;;29.50;13.25;;;4.10;99.90;;;;;;5093602;27;20082;-77
2024/03/06 06:25:23;;;;;;;25.45;13.18;;;4.10;99.90;;;;;;5089406;28;20031;-77
2024/03/06 06:28:11;;;;;;;24.40;12.85;;;4.10;99.90;;;;;;5096236;27;20120;-77
2024/03/06 06:30:58;;;;;;;27.58;12.65;;;4.10;99.90;;;;;;5099778;27;20069;-77
2024/03/06 06:33:47;;;;;;;24.15;12.65;;;4.10;99.90;;;;;;5105545;27;20432;-81
2024/03/06 06:36:36;;;;;;;26.58;12.98;;;4.10;99.90;;;;;;5091421;28;20095;-80
2024/03/06 06:39:23;;;;;;;28.50;12.98;;;4.10;99.90;;;;;;5098917;28;20036;-80
2024/03/06 06:42:11;;;;;;;22.52;12.43;;;4.10;99.90;;;;;;5096052;27;20055;-79
2024/03/06 06:44:59;;;;;;;21.83;12.32;;;4.10;99.90;;;;;;5100005;28;20064;-81
2024/03/06 06:47:47;;;;;;;32.33;12.88;;;4.10;99.90;;;;;;5096960;27;20055;-80
2024/03/06 06:50:36;;;;;;;24.90;12.63;;;4.10;99.90;;;;;;5104661;27;20036;-80
2024/03/06 06:53:25;;;;;;;24.60;12.43;;;4.20;99.90;;;;;;5083378;27;20044;-77
2024/03/06 06:56:13;;;;;;;23.20;12.52;;;4.20;99.90;;;;;;5090172;28;20047;-82
2024/03/06 06:59:00;;;;;;;38.13;12.80;;;4.20;99.90;;;;;;5097804;28;20050;-81
2024/03/06 07:01:48;;;;;;;27.15;12.82;;;4.30;99.90;;;;;;5095881;28;20050;-78
2024/03/06 07:04:36;;;;;;;29.25;12.70;;;4.30;99.90;;;;;;5091635;27;20557;-77
2024/03/06 07:07:23;;;;;;;23.95;12.63;;;4.30;99.90;;;;;;5101708;27;20203;-78
2024/03/06 07:10:10;;;;;;;21.08;12.63;;;4.40;99.90;;;;;;5102953;28;20023;-77
2024/03/06 07:12:58;;;;;;;22.10;12.93;;;4.40;99.90;;;;;;5105467;28;20047;-75
2024/03/06 07:15:46;;;;;;;28.95;12.55;;;4.50;99.90;;;;;;5108643;27;20044;-78
2024/03/06 07:18:33;;;;;;;26.92;12.73;;;4.60;99.90;;;;;;5087785;28;21697;-78
2024/03/06 07:21:21;;;;;;;23.48;12.50;;;4.60;99.90;;;;;;5095280;28;20035;-78
2024/03/06 07:24:10;;;;;;;30.73;14.48;;;4.60;99.90;;;;;;5081727;27;20044;-77
2024/03/06 07:26:57;;;;;;;30.38;13.43;;;4.60;99.90;;;;;;5101224;27;20627;-79
2024/03/06 07:29:45;;;;;;;24.00;12.70;;;4.60;99.90;;;;;;5091778;28;20044;-78
2024/03/06 07:32:32;;;;;;;24.10;12.75;;;4.60;99.90;;;;;;5098652;27;20181;-79
2024/03/06 07:35:20;;;;;;;30.65;13.18;;;4.60;99.90;;;;;;5101485;28;20054;-78
2024/03/06 07:38:09;;;;;;;24.70;13.98;;;4.60;99.90;;;;;;5111829;28;20075;-77
2024/03/06 07:40:57;;;;;;;25.65;13.10;;;4.60;99.90;;;;;;5102817;27;20132;-79
2024/03/06 07:43:45;;;;;;;30.23;13.48;;;4.60;99.90;;;;;;5085651;28;20040;-78
2024/03/06 07:46:37;;;;;;;28.77;13.57;;;4.60;99.90;;;;;;5085280;28;20039;-78
2024/03/06 07:49:25;;;;;;;25.13;14.05;;;4.60;99.90;;;;;;5090638;28;20036;-78
2024/03/06 07:52:13;;;;;;;23.25;14.18;;;4.70;99.90;;;;;;5074907;28;20393;-78
2024/03/06 07:55:01;;;;;;;29.17;14.05;;;4.70;99.90;;;;;;5080382;28;20679;-77
2024/03/06 07:57:49;;;;;;;25.15;13.18;;;4.80;99.90;;;;;;5103100;27;20162;-75
2024/03/06 08:00:36;;;;;;;25.75;12.98;;;4.80;99.90;;;;;;5086357;28;20960;-79
2024/03/06 08:03:24;;;;;;;27.23;13.63;;;4.80;99.90;;;;;;5099670;28;20058;-78
2024/03/06 08:06:15;;;;;;;26.70;13.95;;;4.80;99.90;;;;;;5066016;28;20130;-79
2024/03/06 08:09:03;;;;;;;25.50;12.73;;;4.80;99.90;;;;;;5095765;28;20504;-78
2024/03/06 08:11:51;;;;;;;32.03;12.93;;;4.90;99.90;;;;;;5101417;28;20073;-78
2024/03/06 08:14:39;;;;;;;24.50;12.52;;;4.90;99.90;;;;;;5093680;28;20058;-77
2024/03/06 08:17:26;;;;;;;23.08;12.07;;;5.00;99.90;;;;;;5095310;28;20039;-78
2024/03/06 08:20:14;;;;;;;22.08;12.18;;;5.00;99.90;;;;;;5093408;28;20412;-78
2024/03/06 08:23:01;;;;;;;18.48;10.23;;;5.00;99.90;;;;;;5094114;28;20040;-78
2024/03/06 08:25:49;;;;;;;19.00;10.27;;;5.00;99.90;;;;;;5090384;28;20039;-77
2024/03/06 08:28:36;;;;;;;16.48;9.15;;;5.00;99.90;;;;;;5093731;28;20061;-80
2024/03/06 08:31:25;;;;;;;17.33;9.98;;;5.00;99.90;;;;;;5095746;28;20173;-80
2024/03/06 08:34:12;;;;;;;21.13;10.25;;;5.00;99.90;;;;;;5077769;28;20096;-78
2024/03/06 08:37:00;;;;;;;18.88;9.90;;;5.00;99.90;;;;;;5099337;28;20039;-75
2024/03/06 08:39:48;;;;;;;15.05;8.52;;;4.90;99.90;;;;;;5097964;28;20122;-77
2024/03/06 08:42:36;;;;;;;16.63;9.40;;;5.00;99.90;;;;;;5098684;28;20044;-79
2024/03/06 08:45:23;;;;;;;25.70;9.88;;;5.00;99.90;;;;;;5105035;28;20129;-77
2024/03/06 08:48:12;;;;;;;21.05;10.13;;;5.10;99.90;;;;;;5098327;28;20043;-78
2024/03/06 08:51:00;;;;;;;20.10;9.82;;;5.10;99.90;;;;;;5098568;28;20115;-80
2024/03/06 08:53:48;;;;;;;18.00;9.10;;;5.20;99.90;;;;;;5106355;28;20118;-76
2024/03/06 08:56:35;;;;;;;19.60;9.52;;;5.30;99.90;;;;;;5105523;28;20039;-76
2024/03/06 08:59:22;;;;;;;17.95;9.35;;;5.40;99.90;;;;;;5098018;28;20040;-74
2024/03/06 09:02:16;;;;;;;17.38;9.88;;;5.50;99.90;;;;;;5086585;28;20048;-77
2024/03/06 09:05:10;;;;;;;17.75;8.68;;;5.50;99.90;;;;;;5080336;28;20040;-77
2024/03/06 09:07:58;;;;;;;14.48;8.02;;;5.50;99.90;;;;;;5099441;28;20040;-76
2024/03/06 09:10:49;;;;;;;16.73;8.60;;;5.60;99.90;;;;;;5069451;28;20047;-75
2024/03/06 09:13:36;;;;;;;13.85;7.70;;;5.60;99.90;;;;;;5094962;28;20048;-78
2024/03/06 09:16:24;;;;;;;14.00;7.65;;;5.60;99.90;;;;;;5099749;28;20077;-80
2024/03/06 09:19:11;;;;;;;14.43;8.05;;;5.60;99.90;;;;;;5091197;28;20209;-80
2024/03/06 09:22:04;;;;;;;13.82;7.03;;;5.60;99.90;;;;;;5134067;27;20072;-79
2024/03/06 09:24:56;;;;;;;15.25;7.88;;;5.40;99.90;;;;;;5096200;28;20057;-79
2024/03/06 09:27:44;;;;;;;16.70;7.85;;;5.40;99.90;;;;;;5104747;28;20035;-77
2024/03/06 09:30:31;;;;;;;14.10;8.27;;;5.50;99.90;;;;;;5111962;27;20038;-79
2024/03/06 09:33:20;;;;;;;16.38;10.52;;;5.40;99.90;;;;;;5095108;28;20055;-75
2024/03/06 09:36:13;;;;;;;13.48;9.25;;;5.40;99.90;;;;;;5110952;27;20043;-80
2024/03/06 09:39:00;;;;;;;;;;;5.40;99.90;;;;;;5110137;27;20050;-79
2024/03/06 09:41:48;;;;;;;17.17;9.60;;;5.40;99.90;;;;;;5102747;27;19927;-79
2024/03/06 09:44:36;;;;;;;16.88;11.00;;;5.40;99.90;;;;;;5097009;28;20046;-79
2024/03/06 09:47:28;;;;;;;21.70;11.73;;;5.40;99.90;;;;;;5099641;27;20137;-79
2024/03/06 09:50:20;;;;;;;20.33;12.10;;;5.50;99.90;;;;;;5083959;28;20682;-79
2024/03/06 09:53:09;;;;;;;18.08;11.55;;;5.50;99.90;;;;;;5100430;27;20048;-79
2024/03/06 09:56:00;;;;;;;20.73;12.52;;;5.50;99.90;;;;;;5112058;27;20472;-81
2024/03/06 09:58:48;;;;;;;21.23;13.40;;;5.40;99.90;;;;;;5099147;28;20068;-80
2024/03/06 10:02:02;;;;;;;21.33;13.85;;;5.40;99.90;;;;;;5112009;27;20063;-75
2024/03/06 10:04:50;;;;;;;23.50;13.85;;;5.30;99.90;;;;;;5110407;27;20196;-77
2024/03/06 10:07:40;;;;;;;20.45;13.38;;;5.30;99.90;;;;;;5098300;28;20043;-75
2024/03/06 10:10:28;;;;;;;22.52;14.35;;;5.30;99.90;;;;;;5117078;27;20069;-76
2024/03/06 10:13:34;;;;;;;25.92;15.85;;;5.30;99.90;;;;;;5097772;27;20035;-79
2024/03/06 10:16:23;;;;;;;24.35;16.23;;;5.40;99.90;;;;;;5085313;28;20523;-82
2024/03/06 10:19:20;;;;;;;24.83;16.48;;;5.50;99.90;;;;;;5087488;28;20051;-81
2024/03/06 10:22:09;;;;;;;30.85;17.48;;;5.60;99.90;;;;;;5095562;27;20097;-79
2024/03/06 10:24:58;;;;;;;27.70;18.48;;;5.70;99.90;;;;;;5091294;27;20040;-80
2024/03/06 10:27:46;;;;;;;31.95;18.35;;;5.70;99.90;;;;;;5094820;28;20048;-77
2024/03/06 10:30:35;;;;;;;26.88;16.20;;;5.70;99.90;;;;;;5093900;28;20032;-81
2024/03/06 10:33:26;;;;;;;24.38;17.35;;;5.70;99.90;;;;;;5103652;27;20126;-78
2024/03/06 10:36:13;;;;;;;26.10;15.52;;;5.60;99.90;;;;;;5102634;27;20055;-80
2024/03/06 10:39:02;;;;;;;30.40;16.63;;;5.60;99.90;;;;;;5105742;27;20047;-79
2024/03/06 10:41:55;;;;;;;30.00;15.93;;;5.60;99.90;;;;;;5101890;27;20055;-76
2024/03/06 10:44:55;;;;;;;25.48;17.50;;;5.60;99.90;;;;;;5104520;27;20109;-78
2024/03/06 10:47:50;;;;;;;26.67;16.42;;;5.50;99.90;;;;;;5098866;28;20051;-78
2024/03/06 10:50:44;;;;;;;29.50;17.40;;;5.50;99.90;;;;;;5094263;27;20055;-80
2024/03/06 10:53:36;;;;;;;26.63;18.30;;;5.50;99.90;;;;;;5106677;27;20252;-77
2024/03/06 10:56:23;;;;;;;25.13;18.23;;;5.60;99.90;;;;;;5109688;27;20125;-79
2024/03/06 10:59:13;;;;;;;25.85;18.23;;;5.60;99.90;;;;;;5085006;27;20129;-81
2024/03/06 11:02:02;;;;;;;32.45;19.38;;;5.60;99.90;;;;;;5091753;28;20049;-81
2024/03/06 11:04:51;;;;;;;35.10;21.55;;;5.60;99.90;;;;;;5089248;27;20492;-74
2024/03/06 11:07:40;;;;;;;39.65;24.30;;;5.60;99.90;;;;;;5096521;27;20059;-79
2024/03/06 11:10:33;;;;;;;46.10;24.20;;;5.70;99.90;;;;;;5095835;28;20154;-81
2024/03/06 11:13:22;;;;;;;37.47;24.08;;;5.70;99.90;;;;;;5100781;27;20047;-76
2024/03/06 11:16:11;;;;;;;38.00;23.17;;;5.70;99.90;;;;;;5093641;28;20058;-79
2024/03/06 11:19:06;;;;;;;38.15;24.45;;;5.70;99.90;;;;;;5083019;28;20044;-78
2024/03/06 11:21:53;;;;;;;35.38;24.60;;;5.70;99.90;;;;;;5089508;28;20051;-79
2024/03/06 11:24:42;;;;;;;38.35;24.42;;;5.70;99.90;;;;;;5104035;27;20129;-79
2024/03/06 11:27:29;;;;;;;41.15;26.63;;;5.70;99.90;;;;;;5105165;27;20040;-79
2024/03/06 11:30:21;;;;;;;44.92;27.45;;;5.70;99.90;;;;;;5103510;27;20039;-78
2024/03/06 11:33:16;;;;;;;40.78;26.23;;;5.70;99.90;;;;;;5075550;27;20512;-79
2024/03/06 11:36:28;;;;;;;45.30;28.13;;;5.70;99.90;;;;;;5098576;28;20047;-80
2024/03/06 11:39:17;;;;;;;42.90;26.75;;;5.70;99.90;;;;;;5106510;27;20043;-79
2024/03/06 11:42:08;;;;;;;42.80;26.85;;;5.60;99.90;;;;;;5100521;27;20046;-80
2024/03/06 11:44:57;;;;;;;42.25;28.00;;;5.70;99.90;;;;;;5094856;28;20046;-79
2024/03/06 11:48:01;;;;;;;44.30;28.02;;;5.70;99.90;;;;;;5106048;27;20437;-78
2024/03/06 11:50:51;;;;;;;47.85;29.85;;;5.70;99.90;;;;;;5113974;27;20039;-76
2024/03/06 11:53:41;;;;;;;54.70;31.38;;;5.80;99.90;;;;;;5093959;28;20048;-81
2024/03/06 11:56:28;;;;;;;55.30;34.25;;;5.70;99.90;;;;;;5096948;27;20047;-79
2024/03/06 11:59:39;;;;;;;60.85;33.53;;;5.70;99.90;;;;;;5103478;27;20062;-80
2024/03/06 12:02:28;;;;;;;51.92;32.17;;;5.60;99.90;;;;;;5093334;28;20060;-80
2024/03/06 12:05:16;;;;;;;51.38;31.13;;;5.60;99.90;;;;;;5102659;28;20043;-79
2024/03/06 12:08:07;;;;;;;58.00;31.60;;;5.70;99.90;;;;;;5084684;28;20035;-80
2024/03/06 12:10:57;;;;;;;58.15;32.75;;;5.70;99.90;;;;;;5095880;28;20040;-77
2024/03/06 12:13:48;;;;;;;54.53;32.20;;;5.70;99.90;;;;;;5092228;28;20058;-78
2024/03/06 12:16:36;;;;;;;54.55;30.48;;;5.70;99.90;;;;;;5086182;28;20043;-78
2024/03/06 12:19:33;;;;;;;54.33;30.92;;;5.80;99.90;;;;;;5088912;28;20054;-79
2024/03/06 12:22:25;;;;;;;50.92;30.85;;;5.80;99.90;;;;;;5091922;28;20129;-81
2024/03/06 12:25:20;;;;;;;51.97;30.95;;;5.80;99.90;;;;;;5093374;28;20126;-82
2024/03/06 12:28:09;;;;;;;54.40;31.55;;;5.80;99.90;;;;;;5087755;28;20752;-79
2024/03/06 12:31:00;;;;;;;48.83;29.90;;;5.70;99.90;;;;;;5104587;28;20048;-78
2024/03/06 12:33:57;;;;;;;54.10;31.52;;;5.80;99.90;;;;;;5083402;28;20062;-78
2024/03/06 12:36:48;;;;;;;52.50;30.05;;;5.80;99.90;;;;;;5098046;28;20052;-81
2024/03/06 12:39:36;;;;;;;51.40;30.00;;;5.90;99.90;;;;;;5078649;28;20052;-81
2024/03/06 12:42:28;;;;;;;47.72;30.13;;;5.90;99.90;;;;;;5107486;28;20058;-81
2024/03/06 12:45:17;;;;;;;52.30;31.15;;;5.90;99.90;;;;;;5090139;28;20032;-82
2024/03/06 12:48:05;;;;;;;54.10;31.02;;;6.00;99.90;;;;;;5084247;28;20090;-82
2024/03/06 12:50:54;;;;;;;52.65;30.38;;;6.00;99.90;;;;;;5093834;28;20036;-80
2024/03/06 12:53:41;;;;;;;53.42;31.33;;;6.00;99.90;;;;;;5099108;28;20044;-79
2024/03/06 12:56:29;;;;;;;45.20;29.08;;;6.00;99.90;;;;;;5087016;28;20100;-81
2024/03/06 12:59:17;;;;;;;50.40;29.10;;;6.00;99.90;;;;;;5094976;27;20047;-81
2024/03/06 13:02:07;;;;;;;53.63;30.80;;;6.00;99.90;;;;;;5083534;28;20615;-82
2024/03/06 13:04:55;;;;;;;48.60;29.83;;;6.00;99.90;;;;;;5091588;27;20751;-80
2024/03/06 13:07:45;;;;;;;51.38;30.83;;;6.10;99.90;;;;;;5094242;27;20047;-78
2024/03/06 13:10:33;;;;;;;45.92;29.38;;;6.10;99.90;;;;;;5086320;27;20123;-78
2024/03/06 13:13:20;;;;;;;46.00;29.33;;;6.10;99.90;;;;;;5109487;27;20044;-79
2024/03/06 13:16:10;;;;;;;43.08;28.40;;;6.10;99.90;;;;;;5097676;28;20044;-80
2024/03/06 13:19:00;;;;;;;44.97;28.33;;;6.10;99.90;;;;;;5110481;27;20130;-80
2024/03/06 13:21:49;;;;;;;49.28;29.70;;;6.10;99.90;;;;;;5104991;27;20119;-79
2024/03/06 13:24:37;;;;;;;45.22;27.75;;;6.10;99.90;;;;;;5108681;27;20113;-80
2024/03/06 13:27:30;;;;;;;48.22;29.75;;;6.10;99.90;;;;;;5097000;27;20051;-81
2024/03/06 13:30:18;;;;;;;46.40;28.27;;;6.10;99.90;;;;;;5112302;27;20046;-80
2024/03/06 13:33:07;;;;;;;48.13;27.70;;;6.20;99.90;;;;;;5101162;27;20073;-78
2024/03/06 13:35:55;;;;;;;47.10;29.10;;;6.20;99.90;;;;;;5103562;27;20043;-77
2024/03/06 13:38:43;;;;;;;45.40;29.00;;;6.20;99.90;;;;;;5098065;27;20048;-80
2024/03/06 13:41:30;;;;;;;48.03;29.70;;;6.20;99.90;;;;;;5105062;27;20100;-80
2024/03/06 13:44:18;;;;;;;44.00;28.30;;;6.20;99.90;;;;;;5104339;27;20412;-79
2024/03/06 13:47:08;;;;;;;48.50;28.98;;;6.20;99.90;;;;;;5099332;27;20050;-79
2024/03/06 13:49:56;;;;;;;49.15;30.30;;;6.30;99.90;;;;;;5101769;27;20047;-78
2024/03/06 13:52:44;;;;;;;45.03;28.35;;;6.30;99.90;;;;;;5100872;27;20075;-79
2024/03/06 13:55:34;;;;;;;47.05;28.05;;;6.30;99.90;;;;;;5085557;28;20103;-80
2024/03/06 13:58:24;;;;;;;48.17;29.00;;;6.30;99.90;;;;;;5095855;27;20121;-77
2024/03/06 14:01:12;;;;;;;49.15;28.50;;;6.30;99.90;;;;;;5096143;28;20042;-82
2024/03/06 14:04:07;;;;;;;45.95;28.50;;;6.20;99.90;;;;;;5089223;27;20036;-81
2024/03/06 14:06:57;;;;;;;46.55;28.40;;;6.20;99.90;;;;;;5096015;27;20095;-74
2024/03/06 14:09:44;;;;;;;45.83;29.70;;;6.10;85.30;;;;;;5109718;27;20511;-78
2024/03/06 14:12:31;;;;;;;47.35;28.02;;;6.10;94.60;;;;;;5095103;28;20047;-80
2024/03/06 14:15:19;;;;;;;46.90;29.50;;;6.10;91.80;;;;;;5108447;27;20050;-78
2024/03/06 14:18:07;;;;;;;50.45;30.42;;;6.10;99.90;;;;;;5099761;27;20469;-81
2024/03/06 14:20:55;;;;;;;48.33;30.23;;;6.00;99.90;;;;;;5107249;28;20040;-77
2024/03/06 14:23:45;;;;;;;50.92;30.48;;;6.10;99.90;;;;;;5101163;27;20040;-83
2024/03/06 14:26:36;;;;;;;46.28;30.20;;;6.10;99.90;;;;;;5100476;28;20370;-79
2024/03/06 14:29:27;;;;;;;48.50;30.02;;;6.10;99.90;;;;;;5107289;27;20039;-73
2024/03/06 14:32:19;;;;;;;49.25;30.63;;;6.10;99.90;;;;;;5104830;28;20091;-78
2024/03/06 14:35:07;;;;;;;49.53;31.23;;;6.20;99.90;;;;;;5108678;28;20042;-80
2024/03/06 14:37:56;;;;;;;48.85;30.23;;;6.20;99.90;;;;;;5096686;28;20044;-76
2024/03/06 14:40:45;;;;;;;51.38;30.40;;;6.20;99.90;;;;;;5112227;27;20047;-76